sensor_id;sensor_type;location;lat;lon;timestamp;P1;durP1;ratioP1;P2;durP2;ratioP2
42092;SDS011;28974;50.316;18.960;2024-03-22T00:05:27;71.18;;;32.30;;
42092;SDS011;28974;50.316;18.960;2024-03-22T00:17:27;62.80;;;30.65;;
42092;SDS011;28974;50.316;18.960;2024-03-22T00:29:28;56.00;;;29.02;;
42092;SDS011;28974;50.316;18.960;2024-03-22T00:41:29;79.18;;;40.05;;
42092;SDS011;28974;50.316;18.960;2024-03-22T00:53:30;88.50;;;43.20;;
42092;SDS011;28974;50.316;18.960;2024-03-22T01:05:31;102.45;;;46.85;;
42092;SDS011;28974;50.316;18.960;2024-03-22T01:17:32;111.00;;;49.65;;
42092;SDS011;28974;50.316;18.960;2024-03-22T01:29:33;107.15;;;46.20;;
42092;SDS011;28974;50.316;18.960;2024-03-22T01:41:33;80.25;;;40.17;;
42092;SDS011;28974;50.316;18.960;2024-03-22T01:53:34;64.78;;;29.08;;
42092;SDS011;28974;50.316;18.960;2024-03-22T02:05:36;57.30;;;29.08;;
42092;SDS011;28974;50.316;18.960;2024-03-22T02:17:40;51.45;;;26.63;;
42092;SDS011;28974;50.316;18.960;2024-03-22T02:29:41;53.88;;;27.27;;
42092;SDS011;28974;50.316;18.960;2024-03-22T02:41:42;52.17;;;29.30;;
42092;SDS011;28974;50.316;18.960;2024-03-22T02:53:42;65.68;;;33.00;;
42092;SDS011;28974;50.316;18.960;2024-03-22T03:05:43;64.83;;;31.67;;
42092;SDS011;28974;50.316;18.960;2024-03-22T03:17:44;58.97;;;30.92;;
42092;SDS011;28974;50.316;18.960;2024-03-22T03:29:45;66.88;;;33.13;;
42092;SDS011;28974;50.316;18.960;2024-03-22T03:41:50;67.85;;;36.72;;
42092;SDS011;28974;50.316;18.960;2024-03-22T03:53:50;60.50;;;31.40;;
42092;SDS011;28974;50.316;18.960;2024-03-22T04:05:57;57.83;;;30.52;;
42092;SDS011;28974;50.316;18.960;2024-03-22T04:17:58;63.55;;;31.80;;
42092;SDS011;28974;50.316;18.960;2024-03-22T04:29:59;64.00;;;31.30;;
42092;SDS011;28974;50.316;18.960;2024-03-22T04:42:00;64.65;;;35.00;;
42092;SDS011;28974;50.316;18.960;2024-03-22T04:54:01;63.37;;;34.53;;
42092;SDS011;28974;50.316;18.960;2024-03-22T05:06:02;63.97;;;31.67;;
42092;SDS011;28974;50.316;18.960;2024-03-22T05:18:03;66.55;;;31.33;;
42092;SDS011;28974;50.316;18.960;2024-03-22T05:30:05;51.60;;;23.88;;
42092;SDS011;28974;50.316;18.960;2024-03-22T05:42:06;50.78;;;20.63;;
42092;SDS011;28974;50.316;18.960;2024-03-22T05:54:06;45.40;;;19.60;;
42092;SDS011;28974;50.316;18.960;2024-03-22T06:06:08;42.15;;;17.40;;
42092;SDS011;28974;50.316;18.960;2024-03-22T06:18:09;41.55;;;17.38;;
42092;SDS011;28974;50.316;18.960;2024-03-22T06:30:10;35.17;;;14.93;;
42092;SDS011;28974;50.316;18.960;2024-03-22T06:42:11;30.48;;;15.07;;
42092;SDS011;28974;50.316;18.960;2024-03-22T06:54:12;34.10;;;15.15;;
42092;SDS011;28974;50.316;18.960;2024-03-22T07:06:16;33.28;;;17.80;;
42092;SDS011;28974;50.316;18.960;2024-03-22T07:18:17;71.78;;;20.02;;
42092;SDS011;28974;50.316;18.960;2024-03-22T07:30:18;42.58;;;18.67;;
42092;SDS011;28974;50.316;18.960;2024-03-22T07:42:18;44.05;;;19.85;;
42092;SDS011;28974;50.316;18.960;2024-03-22T07:54:19;46.92;;;20.98;;
42092;SDS011;28974;50.316;18.960;2024-03-22T08:06:21;67.35;;;22.55;;
42092;SDS011;28974;50.316;18.960;2024-03-22T08:18:21;52.95;;;23.38;;
42092;SDS011;28974;50.316;18.960;2024-03-22T08:30:23;59.30;;;27.33;;
42092;SDS011;28974;50.316;18.960;2024-03-22T08:42:24;53.55;;;25.42;;
42092;SDS011;28974;50.316;18.960;2024-03-22T08:54:24;59.50;;;27.77;;
42092;SDS011;28974;50.316;18.960;2024-03-22T09:06:24;50.35;;;23.70;;
42092;SDS011;28974;50.316;18.960;2024-03-22T09:18:25;63.80;;;26.13;;
42092;SDS011;28974;50.316;18.960;2024-03-22T09:30:27;76.32;;;24.25;;
42092;SDS011;28974;50.316;18.960;2024-03-22T09:42:28;54.53;;;25.08;;
42092;SDS011;28974;50.316;18.960;2024-03-22T09:54:32;59.55;;;24.75;;
42092;SDS011;28974;50.316;18.960;2024-03-22T10:06:33;33.23;;;16.67;;
42092;SDS011;28974;50.316;18.960;2024-03-22T10:18:33;34.22;;;14.43;;
42092;SDS011;28974;50.316;18.960;2024-03-22T10:30:35;39.85;;;13.48;;
42092;SDS011;28974;50.316;18.960;2024-03-22T10:42:38;36.78;;;16.83;;
42092;SDS011;28974;50.316;18.960;2024-03-22T10:54:40;23.13;;;12.15;;
42092;SDS011;28974;50.316;18.960;2024-03-22T11:06:40;30.48;;;13.73;;
42092;SDS011;28974;50.316;18.960;2024-03-22T11:18:42;31.55;;;15.25;;
42092;SDS011;28974;50.316;18.960;2024-03-22T11:30:43;37.80;;;13.48;;
42092;SDS011;28974;50.316;18.960;2024-03-22T11:42:45;31.35;;;14.88;;
42092;SDS011;28974;50.316;18.960;2024-03-22T11:54:50;30.73;;;15.20;;
42092;SDS011;28974;50.316;18.960;2024-03-22T12:06:51;38.33;;;17.92;;
42092;SDS011;28974;50.316;18.960;2024-03-22T12:18:54;26.05;;;14.57;;
42092;SDS011;28974;50.316;18.960;2024-03-22T12:30:55;29.33;;;14.63;;
42092;SDS011;28974;50.316;18.960;2024-03-22T12:42:56;27.13;;;14.18;;
42092;SDS011;28974;50.316;18.960;2024-03-22T12:54:56;39.15;;;14.82;;
42092;SDS011;28974;50.316;18.960;2024-03-22T13:06:56;25.17;;;12.55;;
42092;SDS011;28974;50.316;18.960;2024-03-22T13:18:57;35.10;;;14.55;;
42092;SDS011;28974;50.316;18.960;2024-03-22T13:31:04;30.30;;;13.52;;
42092;SDS011;28974;50.316;18.960;2024-03-22T13:43:06;41.03;;;16.75;;
42092;SDS011;28974;50.316;18.960;2024-03-22T13:55:07;41.63;;;19.08;;
42092;SDS011;28974;50.316;18.960;2024-03-22T14:07:08;38.35;;;17.98;;
42092;SDS011;28974;50.316;18.960;2024-03-22T14:19:09;38.65;;;19.33;;
42092;SDS011;28974;50.316;18.960;2024-03-22T14:31:10;37.00;;;19.60;;
42092;SDS011;28974;50.316;18.960;2024-03-22T14:43:11;48.20;;;24.55;;
42092;SDS011;28974;50.316;18.960;2024-03-22T14:55:14;49.63;;;23.33;;
42092;SDS011;28974;50.316;18.960;2024-03-22T15:07:15;44.85;;;21.75;;
42092;SDS011;28974;50.316;18.960;2024-03-22T15:19:16;37.03;;;18.60;;
42092;SDS011;28974;50.316;18.960;2024-03-22T15:31:17;47.58;;;22.13;;
42092;SDS011;28974;50.316;18.960;2024-03-22T15:43:18;46.70;;;24.25;;
42092;SDS011;28974;50.316;18.960;2024-03-22T15:55:19;62.08;;;30.48;;
42092;SDS011;28974;50.316;18.960;2024-03-22T16:07:19;129.13;;;75.05;;
42092;SDS011;28974;50.316;18.960;2024-03-22T16:19:20;153.07;;;73.10;;
42092;SDS011;28974;50.316;18.960;2024-03-22T16:31:21;98.53;;;44.97;;
42092;SDS011;28974;50.316;18.960;2024-03-22T16:43:21;72.00;;;34.20;;
42092;SDS011;28974;50.316;18.960;2024-03-22T16:55:22;72.43;;;34.30;;
42092;SDS011;28974;50.316;18.960;2024-03-22T17:07:26;66.53;;;33.95;;
42092;SDS011;28974;50.316;18.960;2024-03-22T17:19:29;45.92;;;24.80;;
42092;SDS011;28974;50.316;18.960;2024-03-22T17:31:29;48.00;;;24.33;;
42092;SDS011;28974;50.316;18.960;2024-03-22T17:43:30;59.60;;;29.23;;
42092;SDS011;28974;50.316;18.960;2024-03-22T17:55:31;72.07;;;34.67;;
42092;SDS011;28974;50.316;18.960;2024-03-22T18:07:32;87.13;;;41.42;;
42092;SDS011;28974;50.316;18.960;2024-03-22T18:19:34;108.75;;;51.53;;
42092;SDS011;28974;50.316;18.960;2024-03-22T18:31:35;110.30;;;46.65;;
42092;SDS011;28974;50.316;18.960;2024-03-22T18:43:37;116.85;;;50.60;;
42092;SDS011;28974;50.316;18.960;2024-03-22T18:55:37;111.45;;;49.40;;
42092;SDS011;28974;50.316;18.960;2024-03-22T19:07:39;98.30;;;41.60;;
42092;SDS011;28974;50.316;18.960;2024-03-22T19:19:41;107.75;;;44.65;;
42092;SDS011;28974;50.316;18.960;2024-03-22T19:31:42;127.22;;;51.40;;
42092;SDS011;28974;50.316;18.960;2024-03-22T19:43:42;114.18;;;44.40;;
42092;SDS011;28974;50.316;18.960;2024-03-22T19:55:43;83.13;;;34.70;;
42092;SDS011;28974;50.316;18.960;2024-03-22T20:07:45;70.65;;;30.20;;
42092;SDS011;28974;50.316;18.960;2024-03-22T20:19:45;59.40;;;27.83;;
42092;SDS011;28974;50.316;18.960;2024-03-22T20:31:47;63.50;;;27.65;;
